Latest Weather Observations for Fortescue Dave Forrest

IDW60801

Issued at 5:33 pm WST Monday 17 December 2018 (issued every 10 minutes, with the page automatically refreshed every 10 minutes)

About weather observations | Map of weather stations | Latest weather observations for WA | Other Formats
Station Details ID: 505056 Name: FORTESCUE DAVE FORREST Lat: -22.29 Lon: 119.43 Height: 474.6 m
Data from the previous 72 hours. | See also: Recent months for locations in Western Australia
Date/Time
WST
Temp
°C
App
Temp
°C
Dew
Point
°C
Rel
Hum
%
Delta-T
°C
Wind Press
QNH
hPa
Press
MSL
hPa
Rain since
9am
mm
Dir  Spd
km/h
Gust
km/h
Spd
kts
Gust
kts
17/05:30pm 32.1 28.6 5.6 19 14.4 SSW 13 22 7 12 1007.1 1003.1 0.0
17/05:00pm 32.0 28.5 5.5 19 14.4 SSW 13 26 7 14 1006.9 1002.9 0.0
17/04:30pm 33.0 29.5 5.5 18 15.0 SSE 13 28 7 15 1006.6 1002.7 0.0
17/04:00pm 32.0 27.0 4.7 18 14.6 SW 20 30 11 16 1006.6 1002.7 0.0
17/03:30pm 31.8 27.4 2.9 16 15.0 SW 15 30 8 16 1006.8 1002.8 0.0
17/03:00pm 32.1 28.3 4.0 17 14.9 SSW 13 28 7 15 1007.0 1003.0 0.0
17/02:30pm 32.3 27.6 3.3 16 15.2 SW 17 28 9 15 1007.2 1003.2 0.0
17/02:00pm 32.3 28.4 3.3 16 15.2 SSW 13 26 7 14 1007.6 1003.6 0.0
17/01:30pm 32.6 27.6 3.5 16 15.3 SW 19 33 10 18 1007.8 1003.8 0.0
17/01:00pm 31.4 26.0 2.6 16 14.9 SW 20 39 11 21 1008.1 1004.1 0.0
17/12:30pm 31.0 26.3 3.1 17 14.5 S 17 35 9 19 1008.5 1004.5 0.0
17/12:00pm 29.5 23.6 1.9 17 13.9 SW 22 37 12 20 1008.9 1005.0 0.0
17/11:30am 29.3 24.1 2.5 18 13.6 SW 19 32 10 17 1009.1 1005.1 0.0
17/11:00am 28.8 23.5 2.9 19 13.2 SW 20 32 11 17 1009.4 1005.4 0.0
17/10:30am 28.1 24.3 3.7 21 12.5 SSW 13 24 7 13 1009.8 1005.8 0.0
17/10:00am 26.3 23.1 5.3 26 11.0 SW 11 22 6 12 1010.1 1006.1 0.0
17/09:30am 25.7 21.4 5.3 27 10.6 SSW 17 28 9 15 1010.4 1006.4 0.0
17/09:00am 24.7 20.3 6.4 31 9.7 SW 19 28 10 15 1010.4 1006.4 0.0
17/08:30am 23.9 18.9 4.8 29 9.8 SW 20 30 11 16 1010.5 1006.6 0.0
17/08:00am 23.3 18.2 4.3 29 9.6 SW 20 30 11 16 1010.2 1006.2 0.0
17/07:30am 22.7 17.8 5.2 32 8.9 SSW 20 32 11 17 1009.9 1005.9 0.0
17/07:00am 22.3 17.4 5.3 33 8.7 SW 20 32 11 17 1009.9 1005.9 0.0
17/06:30am 21.3 16.5 5.6 36 8.0 SW 20 32 11 17 1009.8 1005.8 0.0
17/06:00am 21.0 16.9 6.2 38 7.6 SW 17 28 9 15 1009.3 1005.3 0.0
17/05:30am 20.4 17.1 6.4 40 7.2 SW 13 19 7 10 1008.8 1004.9 0.0
17/05:00am 21.1 17.5 6.6 39 7.5 SW 15 20 8 11 1008.3 1004.3 0.0
17/04:30am 21.4 17.9 7.3 40 7.4 SW 15 22 8 12 1007.8 1003.8 0.0
17/04:00am 22.0 18.5 7.4 39 7.8 SW 15 20 8 11 1007.4 1003.4 0.0
17/03:30am 22.6 18.7 7.2 37 8.2 SW 17 24 9 13 1007.1 1003.1 0.0
17/03:00am 23.2 19.5 6.5 34 8.8 SW 15 22 8 12 1006.9 1002.9 0.0
17/02:30am 23.7 20.0 6.5 33 9.1 SW 15 20 8 11 1006.5 1002.5 0.0
17/02:00am 24.3 21.1 7.0 33 9.2 SW 13 19 7 10 1006.4 1002.4 0.0
17/01:30am 24.6 21.0 6.8 32 9.5 SW 15 22 8 12 1006.3 1002.3 0.0
17/01:00am 25.0 21.8 6.7 31 9.8 SW 13 20 7 11 1006.3 1002.3 0.0
17/12:30am 25.2 22.2 5.9 29 10.1 WSW 11 19 6 10 1006.4 1002.4 0.0
17/12:00am 25.9 22.4 5.5 27 10.7 WSW 13 19 7 10 1006.6 1002.7 0.0
 
Date/Time
WST
Temp
°C
App
Temp
°C
Dew
Point
°C
Rel
Hum
%
Delta-T
°C
Wind Press
QNH
hPa
Press
MSL
hPa
Rain since
9am
mm
Dir  Spd
km/h
Gust
km/h
Spd
kts
Gust
kts
16/11:30pm 26.6 22.7 5.5 26 11.1 WSW 15 22 8 12 1006.8 1002.8 0.0
16/11:00pm 26.9 23.2 4.6 24 11.6 WSW 13 20 7 11 1006.6 1002.7 0.0
16/10:30pm 27.5 22.9 3.9 22 12.1 WSW 17 22 9 12 1006.4 1002.4 0.0
16/10:00pm 28.2 23.0 2.4 19 13.0 WSW 19 30 10 16 1006.3 1002.3 0.0
16/09:30pm 29.0 23.1 1.5 17 13.7 SW 22 33 12 18 1006.0 1002.0 0.0
16/09:00pm 29.7 24.4 2.1 17 14.0 SW 19 28 10 15 1005.7 1001.7 0.0
16/08:30pm 30.4 25.5 1.8 16 14.4 WSW 17 28 9 15 1005.3 1001.3 0.0
16/08:00pm 31.7 26.1 1.0 14 15.5 WSW 20 32 11 17 1004.9 1000.9 0.0
16/07:30pm 33.3 27.5 0.1 12 16.6 W 20 32 11 17 1004.3 1000.3 0.0
16/07:00pm 33.9 28.2 -0.7 11 17.2 W 19 28 10 15 1003.9 999.9 0.0
16/06:30pm 34.8 29.4 -1.3 10 17.8 W 17 26 9 14 1003.5 999.5 0.0
16/06:00pm 35.4 28.7 -0.8 10 18.2 W 24 33 13 18 1003.1 999.1 0.0
16/05:30pm 36.5 30.0 0.0 10 18.6 W 24 37 13 20 1002.9 998.9 0.0
16/05:00pm 36.8 29.9 0.2 10 18.8 W 26 37 14 20 1002.7 998.6 0.0
16/04:30pm 37.0 29.3 -2.7 8 19.4 WNW 28 43 15 23 1002.6 998.5 0.0
16/04:01pm 36.6 29.3 0.1 10 18.6 WNW 28 46 15 25 1002.7 998.6 0.0
16/04:00pm 36.7 29.0 0.1 10 18.8 WNW 30 46 16 25 1002.8 998.8 0.0
16/03:34pm 37.4 30.2 0.7 10 19.0 W 28 50 15 27 1002.7 998.6 0.0
16/03:30pm 37.4 30.4 -0.8 9 19.3 WNW 26 43 14 23 1002.7 998.6 0.0
16/03:00pm 37.6 31.0 -0.6 9 19.5 WNW 24 44 13 24 1002.9 998.9 0.0
16/02:30pm 37.3 30.1 -2.4 8 19.6 WNW 26 43 14 23 1003.2 999.2 0.0
16/02:00pm 37.5 30.5 -0.7 9 19.4 NW 26 44 14 24 1003.6 999.6 0.0
16/01:30pm 37.0 30.3 -1.1 9 19.1 WNW 24 39 13 21 1004.0 1000.0 0.0
16/01:00pm 37.0 30.7 1.7 11 18.6 WNW 24 41 13 22 1004.4 1000.4 0.0
16/12:30pm 35.7 28.7 4.1 14 17.1 WNW 30 44 16 24 1005.0 1001.0 0.0
16/12:00pm 35.6 30.3 5.0 15 16.8 NNW 22 35 12 19 1005.4 1001.4 0.0
16/11:51am 36.2 30.2 3.4 13 17.6 NW 24 39 13 21 1005.4 1001.4 0.0
16/11:30am 35.3 31.5 7.4 18 15.8 NW 17 28 9 15 1005.8 1001.8 0.0
16/11:00am 34.2 30.9 8.0 20 15.0 NW 15 32 8 17 1006.2 1002.2 0.0
16/10:30am 33.4 30.3 8.8 22 14.1 WNW 15 30 8 16 1006.5 1002.5 0.0
16/10:00am 33.6 32.2 9.6 23 14.0 WNW 7 17 4 9 1007.1 1003.1 0.0
16/09:30am 32.0 29.8 9.5 25 13.0 WNW 11 24 6 13 1007.3 1003.3 0.0
16/09:00am 30.6 28.4 9.5 27 12.1 W 11 20 6 11 1007.5 1003.5 0.0
16/08:30am 30.4 28.7 9.8 28 11.9 WSW 9 19 5 10 1007.5 1003.5 0.0
16/08:00am 30.0 28.3 10.0 29 11.6 SW 9 17 5 9 1007.3 1003.3 0.0
16/07:30am 29.4 27.5 10.5 31 11.0 SW 11 17 6 9 1007.3 1003.3 0.0
16/07:00am 28.5 26.5 10.2 32 10.5 SW 11 17 6 9 1007.1 1003.1 0.0
16/06:30am 27.8 26.2 10.1 33 10.1 WSW 9 15 5 8 1006.9 1002.9 0.0
16/06:00am 26.2 24.5 10.0 36 9.2 WSW 9 13 5 7 1006.5 1002.5 0.0
16/05:30am 25.6 23.0 9.4 36 9.1 WSW 13 17 7 9 1006.2 1002.2 0.0
16/05:00am 24.4 22.3 8.4 36 8.8 W 9 11 5 6 1005.8 1001.8 0.0
16/04:30am 23.6 22.0 8.1 37 8.4 WSW 6 7 3 4 1005.4 1001.4 0.0
16/04:00am 24.4 22.7 7.5 34 9.1 WNW 6 9 3 5 1004.9 1000.9 0.0
16/03:30am 25.0 23.7 7.6 33 9.4 WNW 4 6 2 3 1004.8 1000.8 0.0
16/03:00am 26.3 25.2 8.3 32 10.0 SW 4 6 2 3 1004.7 1000.6 0.0
16/02:30am 26.3 24.9 7.4 30 10.3 WSW 4 7 2 4 1004.3 1000.3 0.0
16/02:00am 27.1 25.3 7.0 28 10.9 WSW 6 9 3 5 1004.0 1000.0 0.0
16/01:30am 27.3 25.2 6.7 27 11.1 WSW 7 9 4 5 1004.0 1000.0 0.0
16/01:00am 28.5 26.0 6.6 25 11.9 SW 9 13 5 7 1004.1 1000.1 0.0
16/12:30am 28.3 26.6 5.8 24 12.0 SW 4 6 2 3 1004.2 1000.2 0.0
16/12:00am 29.6 27.5 5.6 22 12.9 SW 6 9 3 5 1004.6 1000.5 0.0
 
Date/Time
WST
Temp
°C
App
Temp
°C
Dew
Point
°C
Rel
Hum
%
Delta-T
°C
Wind Press
QNH
hPa
Press
MSL
hPa
Rain since
9am
mm
Dir  Spd
km/h
Gust
km/h
Spd
kts
Gust
kts
15/11:30pm 30.9 27.7 5.3 20 13.7 WSW 11 17 6 9 1004.7 1000.6 0.0
15/11:00pm 31.5 28.7 5.1 19 14.2 WSW 9 13 5 7 1004.7 1000.6 0.0
15/10:30pm 32.6 29.3 4.4 17 15.1 WSW 11 19 6 10 1004.4 1000.4 0.0
15/10:00pm 31.9 30.6 10.0 26 12.8 W 7 9 4 5 1004.6 1000.5 0.0
15/09:30pm 33.7 31.5 10.9 25 13.6 WNW 13 20 7 11 1004.6 1000.5 0.0
15/09:00pm 35.1 30.8 8.0 19 15.6 WNW 20 33 11 18 1004.3 1000.3 0.0
15/08:30pm 34.8 30.0 -2.7 9 18.1 NW 13 20 7 11 1003.7 999.7 0.0
15/08:00pm 35.6 30.9 -2.1 9 18.5 NNW 13 17 7 9 1003.0 999.0 0.0
15/07:30pm 36.8 31.6 -2.8 8 19.3 NNW 15 19 8 10 1002.6 998.5 0.0
15/07:00pm 37.8 31.9 -2.1 8 19.9 NNW 19 24 10 13 1002.1 998.1 0.0
15/06:30pm 38.8 32.8 -3.2 7 20.6 NNW 19 32 10 17 1001.9 997.9 0.0
15/06:00pm 39.8 34.3 -2.4 7 21.2 NNW 17 26 9 14 1001.7 997.7 0.0
15/05:30pm 40.2 33.4 -2.1 7 21.3 NW 24 33 13 18 1001.5 997.5 0.0
15/05:00pm 40.9 34.1 -1.6 7 21.8 NW 24 33 13 18 1001.5 997.5 0.0
15/04:30pm 41.0 33.2 -3.6 6 22.1 NW 28 39 15 21 1001.3 997.3 0.0
15/04:00pm 41.6 34.1 -1.1 7 22.1 NW 28 41 15 22 1001.3 997.3 0.0
15/03:37pm 41.6 34.1 -1.1 7 22.0 NW 28 48 15 26 1001.3 997.3 0.0
15/03:30pm 41.6 33.6 0.7 8 21.7 NW 32 48 17 26 1001.3 997.3 0.0
15/03:04pm 41.7 34.8 2.4 9 21.3 NW 28 46 15 25 1001.5 997.5 0.0
15/03:00pm 41.3 33.6 2.1 9 21.3 NW 32 46 17 25 1001.6 997.6 0.0
15/02:30pm 41.3 33.6 3.6 10 20.8 NW 33 46 18 25 1001.9 997.9 0.0
15/02:19pm 42.6 35.0 3.1 9 21.8 NNW 32 50 17 27 1001.9 997.9 0.0
15/02:09pm 41.7 34.3 3.9 10 21.0 NW 32 52 17 28 1002.0 998.0 0.0
15/02:06pm 41.9 34.9 4.0 10 21.1 NW 30 52 16 28 1001.9 997.9 0.0
15/02:00pm 41.4 34.3 3.7 10 20.9 NW 30 44 16 24 1002.2 998.2 0.0
15/01:30pm 41.4 34.7 3.7 10 20.8 NNW 28 48 15 26 1002.6 998.5 0.0
15/01:02pm 41.8 35.2 4.0 10 21.0 NNW 28 46 15 25 1002.8 998.8 0.0
15/01:00pm 41.1 34.7 3.4 10 20.8 NNW 26 41 14 22 1002.9 998.9 0.0
15/12:30pm 40.7 35.7 4.5 11 20.2 NW 20 43 11 23 1003.4 999.4 0.0
15/12:00pm 40.5 35.1 4.3 11 20.2 NNW 22 37 12 20 1004.0 1000.0 0.0
15/11:30am 39.2 34.8 4.6 12 19.2 NNW 17 32 9 17 1004.6 1000.5 0.0
15/11:00am 38.6 35.1 5.3 13 18.7 N 13 33 7 18 1005.1 1001.1 0.0
15/10:30am 38.5 36.5 6.3 14 18.2 ENE 6 13 3 7 1005.5 1001.5 0.0
15/10:00am 36.7 34.6 5.9 15 17.2 SSE 6 13 3 7 1006.0 1002.0 0.0
15/09:30am 36.2 34.0 6.4 16 16.7 ENE 7 22 4 12 1006.3 1002.3 0.0
15/09:00am 35.3 32.6 5.7 16 16.4 E 9 17 5 9 1006.8 1002.8 0.0
15/08:30am 34.8 32.8 6.2 17 15.9 SSW 6 9 3 5 1007.0 1003.0 0.0
15/08:00am 33.6 31.5 6.8 19 15.0 SW 7 13 4 7 1007.0 1003.0 0.0
15/07:30am 32.9 32.0 7.7 21 14.2 NNW 2 6 1 3 1007.0 1003.0 0.0
15/07:00am 31.8 30.5 9.3 25 13.0 NW 6 9 3 5 1007.0 1003.0 0.0
15/06:30am 29.9 29.0 10.5 30 11.3 NNE 6 7 3 4 1006.8 1002.8 0.0
15/06:00am 28.1 27.4 9.9 32 10.4 NW 4 4 2 2 1006.4 1002.4 0.0
15/05:30am 26.9 25.7 9.7 34 9.7 NNW 6 6 3 3 1006.1 1002.1 0.0
15/05:00am 27.5 26.7 9.8 33 10.1 NNW 4 6 2 3 1005.9 1001.9 0.0
15/04:30am 28.2 26.5 9.9 32 10.5 NNW 9 9 5 5 1005.6 1001.6 0.0
15/04:00am 28.2 27.0 9.5 31 10.6 NNW 6 7 3 4 1005.4 1001.4 0.0
15/03:30am 28.7 27.7 8.9 29 11.2 NNW 4 6 2 3 1005.3 1001.3 0.0
15/03:00am 29.0 27.6 8.7 28 11.5 N 6 9 3 5 1005.1 1001.1 0.0
15/02:30am 28.7 27.6 8.4 28 11.3 N 4 7 2 4 1005.1 1001.1 0.0
15/02:00am 29.7 27.6 8.2 26 12.1 N 9 13 5 7 1005.2 1001.2 0.0
15/01:30am 29.9 27.8 8.3 26 12.1 NNW 9 11 5 6 1005.4 1001.4 0.0
15/01:00am 30.2 28.2 8.6 26 12.2 NNW 9 13 5 7 1005.5 1001.5 0.0
15/12:30am 30.9 29.3 8.6 25 12.6 NNW 7 11 4 6 1005.7 1001.7 0.0
15/12:00am 31.8 30.0 8.1 23 13.4 NNW 7 11 4 6 1006.0 1002.0 0.0
 
Date/Time
WST
Temp
°C
App
Temp
°C
Dew
Point
°C
Rel
Hum
%
Delta-T
°C
Wind Press
QNH
hPa
Press
MSL
hPa
Rain since
9am
mm
Dir  Spd
km/h
Gust
km/h
Spd
kts
Gust
kts
14/11:30pm 32.9 29.8 9.0 23 13.8 NNW 15 20 8 11 1006.2 1002.2 0.0
14/11:00pm 33.5 29.9 8.2 21 14.5 NW 17 24 9 13 1006.3 1002.3 0.0
14/10:30pm 34.1 29.8 8.0 20 14.9 NW 20 28 11 15 1006.4 1002.4 0.0
14/10:00pm 34.7 29.4 6.9 18 15.7 NW 24 32 13 17 1006.4 1002.4 0.0
14/09:30pm 35.4 30.3 7.5 18 15.9 NW 24 33 13 18 1006.4 1002.4 0.0
14/09:00pm 36.0 31.0 8.0 18 16.1 NNW 24 33 13 18 1006.4 1002.4 0.0
14/08:30pm 36.6 32.4 8.4 18 16.3 NW 20 30 11 16 1006.2 1002.2 0.0
14/08:00pm 37.0 33.6 6.1 15 17.4 N 13 28 7 15 1006.1 1002.1 0.0
14/07:30pm 38.0 35.0 5.9 14 18.0 N 11 15 6 8 1005.7 1001.7 0.0
14/07:00pm 38.9 35.4 5.5 13 18.8 NW 13 26 7 14 1005.5 1001.5 0.0
14/06:30pm 39.5 35.7 6.0 13 19.0 NW 15 22 8 12 1005.4 1001.4 0.0
14/06:00pm 40.3 36.4 5.4 12 19.7 NNW 15 20 8 11 1005.2 1001.2 0.0

Other Formats:

Comma delimited format used in spreadsheet applications
http://www.bom.gov.au/fwo/IDW60801/IDW60801.99736.axf

JavaScript Object Notation format (JSON) in row-major order
http://www.bom.gov.au/fwo/IDW60801/IDW60801.99736.json